Terminal Aerodrome Forecast
Issued by NWS

Home | Current Version | Previous Version | Text Only | Print | Product List | Glossary On
Versions: 1 2 3 4 5 6 7 8 9 10 11 12 13 14 15 16 17 18 19 20 21 22 23 24 25 26 27 28 29 30 31 32 33 34 35 36 37 38 39 40 41 42 43 44 45 46 47 48 49 50
000
FTUS45 KBOU 261903 AAB
TAFAPA
TAF AMD
KAPA 261903Z 2619/2718 05005KT P6SM SCT020 BKN028 OVC060
      TEMPO 2619/2621 5SM -SN BR BKN020
     FM262100 07010KT P6SM VCSH SCT015 OVC030
      TEMPO 2621/2701 3SM -SN BR SCT015 BKN025
     FM270100 12010KT 2SM -SN SCT008 BKN015
      TEMPO 2701/2705 3/4SM -SN BR BKN007 OVC012
     FM270600 16012KT P6SM VCSH SCT015 OVC030
     FM271100 17010KT P6SM SCT040 BKN070=

USA.gov is the U.S. government's official web portal to all federal, state and local government web resources and services.